Hyattville, Wyoming
Current Conditions -  °F | °C
As of 2:53 AM on Monday 22 Dec 2014 (Local Time) from KWRL Reporting Station
Clear Clear  
Wind Chill: 11°   Ceiling: Unl
Heat Index: 22°   Visibility: 10mi
Dew Point: 19°   Wind: 10mph
Humidity: 89%   Direction: 200°SSW
Pressure: 29.75"   Gusts: NA
Location:  44.25°N, 107.6°W
Report Text: KWRL 220953Z AUTO 20009KT 10SM CLR M06/M07 A2975 RMK AO2 SLP111 T10561072
Loading
Personal Weather Stations






























Interactive Weather Map New forecast layout! Learn more

10-Day Weather Forecast

Advertisements
Track Severe Weather on mobile